Time;durP1;ratioP1;P1;durP2;ratioP2;P2;SDS_P1;SDS_P2;PMS_P1;PMS_P2;Temp;Humidity;BMP_temperature;BMP_pressure;BME280_temperature;BME280_humidity;BME280_pressure;Samples;Min_cycle;Max_cycle;Signal;HPM_P1;HPM_P2
2021/03/07 00:02:12;;;;;;;12.23;6.60;;;;;;;3.85;49.50;102913.38;4913103;28;119430;-72
2021/03/07 00:04:39;;;;;;;11.43;6.38;;;;;;;3.84;49.33;102902.84;4913399;28;123787;-72
2021/03/07 00:07:05;;;;;;;12.23;7.10;;;;;;;3.81;49.38;102905.44;4916320;28;123345;-72
2021/03/07 00:09:33;;;;;;;13.40;6.50;;;;;;;3.80;49.35;102898.44;4912589;28;118574;-72
2021/03/07 00:11:59;;;;;;;10.98;6.90;;;;;;;3.77;49.39;102898.38;4914264;28;119077;-72
2021/03/07 00:14:26;;;;;;;11.35;6.47;;;;;;;3.77;49.55;102887.88;4912672;28;123819;-72
2021/03/07 00:16:52;;;;;;;12.23;6.97;;;;;;;3.76;49.59;102892.25;4915431;28;124670;-72
2021/03/07 00:19:19;;;;;;;10.30;7.47;;;;;;;3.76;49.86;102886.13;4912710;28;119194;-72
2021/03/07 00:21:45;;;;;;;10.63;6.72;;;;;;;3.76;49.99;102894.00;4912974;28;119406;-72
2021/03/07 00:24:12;;;;;;;12.13;7.18;;;;;;;3.75;49.87;102886.97;4912560;28;123547;-72
2021/03/07 00:26:39;;;;;;;11.77;6.28;;;;;;;3.74;49.81;102882.63;4912339;28;124259;-71
2021/03/07 00:29:06;;;;;;;12.35;6.47;;;;;;;3.73;49.77;102893.94;4914295;28;120325;-72
2021/03/07 00:34:25;;;;;;;11.15;6.60;;;;;;;3.67;49.75;102887.75;4908834;28;123527;-67
2021/03/07 00:36:51;;;;;;;11.30;6.35;;;;;;;3.66;49.48;102885.09;4910581;28;123891;-67
2021/03/07 00:39:18;;;;;;;9.48;6.00;;;;;;;3.65;49.55;102889.44;4910192;28;119726;-68
2021/03/07 00:41:44;;;;;;;12.15;6.13;;;;;;;3.63;49.78;102885.91;4913814;28;119321;-68
2021/03/07 00:44:12;;;;;;;10.88;6.60;;;;;;;3.61;49.70;102881.53;4929839;28;123715;-68
2021/03/07 00:46:40;;;;;;;9.50;6.55;;;;;;;3.59;49.73;102889.34;4928757;28;124595;-67
2021/03/07 00:49:07;;;;;;;9.93;6.38;;;;;;;3.56;49.84;102884.06;4929372;28;118691;-67
2021/03/07 00:51:34;;;;;;;15.20;6.57;;;;;;;3.55;49.81;102882.31;4929001;28;118040;-68
2021/03/07 00:54:01;;;;;;;9.60;6.30;;;;;;;3.52;49.80;102887.47;4929546;28;124446;-68
2021/03/07 00:56:28;;;;;;;13.40;6.40;;;;;;;3.48;49.89;102880.44;4930398;28;124122;-68
2021/03/07 00:58:54;;;;;;;11.35;6.13;;;;;;;3.46;49.73;102888.25;4929553;28;118986;-68
2021/03/07 01:01:21;;;;;;;12.48;6.63;;;;;;;3.43;49.87;102892.59;4929485;28;118983;-68
2021/03/07 01:03:48;;;;;;;11.52;6.32;;;;;;;3.40;49.70;102887.28;4928537;28;124772;-67
2021/03/07 01:06:14;;;;;;;9.68;6.72;;;;;;;3.38;50.13;102883.75;4928694;28;123568;-68
2021/03/07 01:08:41;;;;;;;13.15;6.25;;;;;;;3.34;50.23;102879.31;4930942;28;119328;-67
2021/03/07 01:11:08;;;;;;;11.13;6.80;;;;;;;3.31;50.00;102878.41;4929711;28;118504;-67
2021/03/07 01:13:34;;;;;;;10.95;6.10;;;;;;;3.29;50.18;102872.25;4929826;28;124628;-67
2021/03/07 01:16:01;;;;;;;10.07;5.97;;;;;;;3.27;50.37;102871.34;4930292;28;123752;-67
2021/03/07 01:18:28;;;;;;;11.25;6.05;;;;;;;3.25;50.25;102870.44;4928554;28;119435;-67
2021/03/07 01:20:54;;;;;;;10.77;6.43;;;;;;;3.23;50.32;102868.66;4929297;28;119363;-67
2021/03/07 01:23:21;;;;;;;10.23;6.03;;;;;;;3.22;50.19;102867.78;4929674;28;122776;-68
2021/03/07 01:25:48;;;;;;;10.77;6.40;;;;;;;3.22;50.24;102866.88;4933926;28;124549;-67
2021/03/07 01:28:16;;;;;;;12.23;6.15;;;;;;;3.19;50.24;102856.34;4932841;28;118645;-68
2021/03/07 01:30:43;;;;;;;11.10;5.88;;;;;;;3.16;50.46;102857.16;4931456;28;119067;-67
2021/03/07 01:33:10;;;;;;;10.68;6.80;;;;;;;3.14;50.43;102853.63;4931749;28;123959;-67
2021/03/07 01:35:39;;;;;;;10.05;6.32;;;;;;;3.13;50.75;102851.88;4931050;28;124310;-67
2021/03/07 01:38:06;;;;;;;7.97;5.85;;;;;;;3.12;50.85;102850.13;4930232;28;119581;-68
2021/03/07 01:40:41;;;;;;;12.50;6.88;;;;;;;3.11;50.92;102844.00;4929596;28;119467;-67
2021/03/07 01:43:08;;;;;;;12.18;6.72;;;;;;;3.10;50.83;102846.59;4926903;28;123551;-67
2021/03/07 01:45:35;;;;;;;9.27;5.82;;;;;;;3.09;50.92;102837.00;4928468;28;124383;-67
2021/03/07 01:48:04;;;;;;;11.95;5.88;;;;;;;3.07;50.96;102836.03;4930263;28;119713;-67
2021/03/07 01:50:37;;;;;;;13.02;6.82;;;;;;;3.06;50.89;102834.31;4928102;28;117868;-68
2021/03/07 01:53:04;;;;;;;12.05;6.63;;;;;;;3.04;50.91;102836.00;4928854;28;124026;-68
2021/03/07 01:55:34;;;;;;;11.00;6.20;;;;;;;3.03;50.89;102829.00;4929831;28;124378;-68
2021/03/07 01:58:09;;;;;;;11.18;6.75;;;;;;;3.02;51.13;102837.72;4929765;28;118920;-68
2021/03/07 02:00:36;;;;;;;12.48;6.85;;;;;;;3.01;50.88;102820.25;4929143;28;119723;-68
2021/03/07 02:03:03;;;;;;;13.52;6.43;;;;;;;3.00;51.18;102821.13;4928904;28;124507;-67
2021/03/07 02:05:31;;;;;;;11.98;6.47;;;;;;;3.00;51.12;102823.72;4928600;28;124362;-68
2021/03/07 02:07:58;;;;;;;13.32;6.43;;;;;;;2.99;50.92;102816.72;4928297;28;120505;-67
2021/03/07 02:10:32;;;;;;;12.27;6.88;;;;;;;3.00;51.48;102818.50;4929808;28;120150;-68
2021/03/07 02:13:02;;;;;;;11.20;7.28;;;;;;;3.00;51.56;102808.03;4926503;28;123846;-67
2021/03/07 02:15:32;;;;;;;15.20;7.38;;;;;;;3.00;51.46;102808.03;4928023;28;123931;-67
2021/03/07 02:18:00;;;;;;;11.40;6.68;;;;;;;2.99;51.43;102801.00;4926045;28;119573;-67
2021/03/07 02:20:28;;;;;;;16.67;7.03;;;;;;;3.01;51.65;102807.16;4927343;28;118601;-68
2021/03/07 02:23:03;;;;;;;16.88;7.68;;;;;;;3.00;51.58;102802.78;4927038;28;122865;-67
2021/03/07 02:25:30;;;;;;;12.75;7.25;;;;;;;3.01;51.65;102794.06;4928683;28;123953;-68
2021/03/07 02:27:58;;;;;;;12.18;7.43;;;;;;;3.01;51.69;102799.31;4928219;28;119322;-68
2021/03/07 02:30:26;;;;;;;18.42;7.75;;;;;;;3.01;51.75;102794.06;4927517;28;119409;-68
2021/03/07 02:33:32;;;;;;;14.43;7.95;;;;;;;2.99;51.83;102790.53;4926224;28;122870;-67
2021/03/07 02:36:08;;;;;;;12.68;7.60;;;;;;;2.98;51.64;102780.94;4927384;28;123547;-67
2021/03/07 02:38:39;;;;;;;11.48;7.05;;;;;;;3.00;51.74;102781.84;4929986;28;119263;-68
2021/03/07 02:41:07;;;;;;;14.50;8.00;;;;;;;2.99;51.81;102780.06;4924500;28;119733;-67
2021/03/07 02:43:37;;;;;;;14.80;7.63;;;;;;;2.98;51.84;102773.09;4910707;28;121917;-67
2021/03/07 02:46:06;;;;;;;12.05;7.53;;;;;;;2.99;51.79;102774.84;4928950;28;123699;-68
2021/03/07 02:48:34;;;;;;;15.38;7.32;;;;;;;2.99;52.10;102775.72;4927707;28;118869;-68
2021/03/07 02:51:02;;;;;;;15.02;7.60;;;;;;;3.01;51.96;102776.63;4909012;28;118327;-68
2021/03/07 02:53:30;;;;;;;13.25;7.95;;;;;;;3.01;51.91;102771.38;4930418;28;123914;-68
2021/03/07 02:56:01;;;;;;;13.00;7.80;;;;;;;3.02;52.04;102767.06;4931634;28;123727;-67
2021/03/07 02:58:29;;;;;;;12.52;7.75;;;;;;;3.02;51.94;102769.66;4926776;28;120010;-68
2021/03/07 03:00:59;;;;;;;14.93;8.23;;;;;;;3.03;52.18;102767.09;4930544;28;119174;-67
2021/03/07 03:03:34;;;;;;;17.70;9.20;;;;;;;3.05;52.25;102764.47;4931126;28;124091;-68
2021/03/07 03:06:02;;;;;;;18.65;8.90;;;;;;;3.06;52.07;102761.00;4927658;28;123617;-68
2021/03/07 03:08:32;;;;;;;16.77;8.65;;;;;;;3.06;52.20;102758.38;4928033;28;119601;-68
2021/03/07 03:11:00;;;;;;;15.85;8.35;;;;;;;3.06;52.10;102761.88;4931738;28;118758;-67
2021/03/07 03:13:33;;;;;;;14.95;8.25;;;;;;;3.05;52.03;102754.91;4929373;28;124470;-68
2021/03/07 03:16:02;;;;;;;15.15;8.88;;;;;;;3.05;52.10;102754.00;4931823;28;122907;-67
2021/03/07 03:18:30;;;;;;;15.73;8.45;;;;;;;3.02;51.89;102754.84;4931898;28;119594;-67
2021/03/07 03:21:00;;;;;;;14.93;8.10;;;;;;;3.01;52.19;102752.19;4931462;28;119226;-67
2021/03/07 03:23:27;;;;;;;13.85;8.43;;;;;;;3.00;51.92;102750.44;4930807;28;123699;-67
2021/03/07 03:25:55;;;;;;;13.95;8.23;;;;;;;2.98;52.08;102741.69;4913941;28;124545;-67
2021/03/07 03:28:23;;;;;;;18.20;8.02;;;;;;;2.98;52.12;102741.69;4927832;28;119704;-68
2021/03/07 03:30:51;;;;;;;14.02;7.75;;;;;;;2.97;52.10;102737.28;4929999;28;118688;-68
2021/03/07 03:33:17;;;;;;;18.95;8.45;;;;;;;2.96;52.18;102739.03;4928709;28;124119;-68
2021/03/07 03:35:44;;;;;;;15.55;8.23;;;;;;;2.93;52.04;102739.84;4929833;28;123047;-68
2021/03/07 03:38:11;;;;;;;11.57;7.57;;;;;;;2.92;52.15;102732.88;4931464;28;118268;-67
2021/03/07 03:40:38;;;;;;;14.32;7.63;;;;;;;2.91;51.97;102733.69;4931841;28;118937;-67
2021/03/07 03:43:09;;;;;;;13.70;7.45;;;;;;;2.88;51.98;102725.81;4929064;28;124900;-67
2021/03/07 03:45:39;;;;;;;13.48;7.75;;;;;;;2.87;52.10;102725.78;4929323;28;124188;-67
2021/03/07 03:48:13;;;;;;;11.95;6.97;;;;;;;2.85;51.89;102723.13;4929222;28;119812;-68
2021/03/07 03:50:42;;;;;;;13.80;6.88;;;;;;;2.83;52.12;102727.47;4913015;28;119144;-67
2021/03/07 03:53:15;;;;;;;12.07;7.50;;;;;;;2.81;51.91;102723.94;4929879;28;124610;-67
2021/03/07 03:55:46;;;;;;;14.90;7.00;;;;;;;2.78;52.00;102718.66;4928324;28;123965;-68
2021/03/07 03:58:14;;;;;;;11.70;6.55;;;;;;;2.76;51.74;102724.72;4928928;28;119072;-67
2021/03/07 04:00:43;;;;;;;14.40;7.32;;;;;;;2.73;51.87;102729.03;4930058;28;118069;-67
2021/03/07 04:03:13;;;;;;;12.07;6.80;;;;;;;2.71;51.95;102732.47;4929626;28;124015;-67
2021/03/07 04:05:48;;;;;;;12.60;6.60;;;;;;;2.68;51.87;102724.59;4930380;28;123927;-67
2021/03/07 04:08:16;;;;;;;13.50;6.65;;;;;;;2.66;51.84;102728.91;4919707;28;118141;-67
2021/03/07 04:10:45;;;;;;;13.43;6.30;;;;;;;2.63;51.81;102728.84;4929109;28;117712;-67
2021/03/07 04:13:15;;;;;;;14.75;6.53;;;;;;;2.60;52.07;102724.44;4928007;28;123273;-67
2021/03/07 04:15:43;;;;;;;12.02;6.72;;;;;;;2.59;51.84;102727.03;4930226;28;123661;-67
2021/03/07 04:18:14;;;;;;;16.23;6.85;;;;;;;2.56;51.85;102727.84;4929310;28;118727;-67
2021/03/07 04:20:43;;;;;;;11.00;7.10;;;;;;;2.55;51.81;102725.22;4915740;28;117875;-67
2021/03/07 04:23:11;;;;;;;15.23;7.28;;;;;;;2.53;51.92;102727.78;4928737;28;123939;-67
2021/03/07 04:25:38;;;;;;;13.40;7.07;;;;;;;2.52;51.84;102721.69;4919552;28;124457;-67
2021/03/07 04:28:05;;;;;;;14.43;6.72;;;;;;;2.49;52.20;102719.00;4931040;28;119486;-67
2021/03/07 04:30:33;;;;;;;12.40;7.45;;;;;;;2.46;52.02;102718.94;4917147;28;118969;-67
2021/03/07 04:33:01;;;;;;;10.82;7.50;;;;;;;2.45;51.97;102725.03;4929160;28;124712;-67
2021/03/07 04:35:29;;;;;;;15.85;7.15;;;;;;;2.44;51.99;102718.03;4929040;28;124210;-67
2021/03/07 04:38:04;;;;;;;13.40;7.68;;;;;;;2.42;52.09;102714.50;4927567;28;118977;-66
2021/03/07 04:40:32;;;;;;;14.00;7.95;;;;;;;2.41;52.21;102707.53;4928403;28;120134;-67
2021/03/07 04:42:59;;;;;;;12.00;7.75;;;;;;;2.40;52.33;102715.34;4929983;28;123973;-67
2021/03/07 04:45:26;;;;;;;15.65;7.65;;;;;;;2.38;52.05;102717.94;4931003;28;124296;-67
2021/03/07 04:47:53;;;;;;;14.98;7.40;;;;;;;2.36;52.16;102709.19;4912503;28;118867;-67
2021/03/07 04:50:19;;;;;;;17.73;8.20;;;;;;;2.36;52.19;102709.19;4930784;28;119181;-67
2021/03/07 04:52:46;;;;;;;17.38;8.23;;;;;;;2.34;52.18;102701.28;4912614;28;123432;-67
2021/03/07 04:55:13;;;;;;;17.10;8.88;;;;;;;2.34;52.09;102705.66;4929990;28;124643;-67
2021/03/07 04:57:40;;;;;;;15.75;8.20;;;;;;;2.33;52.12;102701.25;4931163;28;119042;-69
2021/03/07 05:00:15;;;;;;;17.55;8.48;;;;;;;2.32;52.24;102707.34;4930237;28;118808;-67
2021/03/07 05:02:42;;;;;;;16.65;8.32;;;;;;;2.31;52.41;102705.56;4927095;28;124920;-67
2021/03/07 05:05:09;;;;;;;14.55;8.20;;;;;;;2.29;52.14;102702.06;4927527;28;124411;-67
2021/03/07 05:07:36;;;;;;;14.63;7.82;;;;;;;2.28;52.30;102700.28;4928757;28;118591;-66
2021/03/07 05:10:05;;;;;;;16.80;8.35;;;;;;;2.27;52.36;102703.75;4927333;28;119779;-67
2021/03/07 05:12:32;;;;;;;19.05;8.52;;;;;;;2.27;52.33;102698.53;4911491;28;122935;-67
2021/03/07 05:15:05;;;;;;;16.60;8.88;;;;;;;2.26;52.24;102696.75;4927365;28;123934;-69
2021/03/07 05:17:32;;;;;;;16.73;8.93;;;;;;;2.27;52.40;102693.31;4929396;28;119529;-67
2021/03/07 05:20:00;;;;;;;13.20;8.02;;;;;;;2.25;52.51;102689.78;4930481;28;118710;-67
2021/03/07 05:22:27;;;;;;;19.67;8.73;;;;;;;2.26;52.37;102691.53;4929886;28;123911;-67
2021/03/07 05:24:54;;;;;;;13.70;7.97;;;;;;;2.24;52.54;102695.84;4927935;28;124238;-67
2021/03/07 05:27:21;;;;;;;16.80;8.80;;;;;;;2.23;52.76;102691.50;4895239;28;119218;-67
2021/03/07 05:29:48;;;;;;;14.52;8.23;;;;;;;2.23;52.79;102696.72;4929666;28;119400;-67
2021/03/07 05:32:14;;;;;;;14.43;8.07;;;;;;;2.22;52.67;102690.59;4929203;28;124120;-67
2021/03/07 05:34:41;;;;;;;19.73;8.40;;;;;;;2.22;52.67;102689.72;4927444;28;123915;-67
2021/03/07 05:37:08;;;;;;;14.60;8.43;;;;;;;2.21;52.56;102693.19;4912115;28;118917;-67
2021/03/07 05:39:34;;;;;;;18.10;8.13;;;;;;;2.21;52.60;102682.75;4928727;28;119394;-67
2021/03/07 05:42:02;;;;;;;16.05;7.90;;;;;;;2.21;52.75;102687.97;4911636;28;123196;-67
2021/03/07 05:44:29;;;;;;;13.38;8.00;;;;;;;2.22;53.02;102684.47;4928880;28;123389;-67
2021/03/07 05:46:56;;;;;;;14.60;8.35;;;;;;;2.22;52.72;102689.72;4928027;28;119046;-67
2021/03/07 05:49:23;;;;;;;14.48;8.55;;;;;;;2.20;52.91;102683.56;4929386;28;118142;-67
2021/03/07 05:51:50;;;;;;;16.70;8.98;;;;;;;2.20;52.90;102688.81;4927028;28;124978;-67
2021/03/07 05:54:17;;;;;;;13.48;8.77;;;;;;;2.19;53.05;102684.44;4929190;28;123568;-67
2021/03/07 05:56:52;;;;;;;16.17;8.32;;;;;;;2.19;52.96;102684.44;4929243;28;120712;-67
2021/03/07 05:59:20;;;;;;;15.57;8.03;;;;;;;2.20;52.97;102680.97;4927232;28;118324;-67
2021/03/07 06:01:46;;;;;;;19.48;8.73;;;;;;;2.21;52.92;102682.75;4926009;28;123179;-67
2021/03/07 06:04:13;;;;;;;16.02;8.63;;;;;;;2.21;53.05;102681.00;4926524;28;123780;-67
2021/03/07 06:06:40;;;;;;;16.70;8.02;;;;;;;2.21;53.28;102677.50;4927273;28;119275;-67
2021/03/07 06:09:22;;;;;;;13.40;8.10;;;;;;;2.19;53.40;102674.00;4927655;28;118589;-67
2021/03/07 06:11:51;;;;;;;16.13;8.55;;;;;;;2.20;53.12;102680.97;4926189;28;123876;-67
2021/03/07 06:14:27;;;;;;;15.90;9.25;;;;;;;2.19;53.07;102668.75;4928305;28;124337;-67
2021/03/07 06:16:59;;;;;;;16.67;8.35;;;;;;;2.20;53.31;102675.72;4927850;28;120688;-67
2021/03/07 06:19:26;;;;;;;16.90;8.43;;;;;;;2.20;53.09;102675.72;4928794;28;119655;-68
2021/03/07 06:21:52;;;;;;;15.00;7.97;;;;;;;2.22;53.22;102679.25;4927467;28;124797;-67
2021/03/07 06:24:37;;;;;;;17.98;8.10;;;;;;;2.21;53.40;102677.50;4910687;28;124237;-68
2021/03/07 06:27:12;;;;;;;19.92;9.00;;;;;;;2.22;53.52;102679.25;4930397;28;119822;-67
2021/03/07 06:30:02;;;;;;;18.40;8.20;;;;;;;2.21;53.27;102673.16;4930911;28;117013;-67
2021/03/07 06:32:31;;;;;;;18.85;8.65;;;;;;;2.22;53.29;102679.25;4929298;28;124575;-67
2021/03/07 06:34:58;;;;;;;22.58;10.20;;;;;;;2.22;53.35;102674.03;4963998;22;124109;-71
2021/03/07 06:37:26;;;;;;;27.58;10.52;;;;;;;2.23;53.45;102673.19;4950797;28;119451;-71
2021/03/07 06:39:53;;;;;;;27.42;10.73;;;;;;;2.25;53.63;102674.09;4956215;28;119217;-71
2021/03/07 06:42:20;;;;;;;31.50;11.65;;;;;;;2.27;53.54;102672.38;4962800;28;123200;-70
2021/03/07 06:45:03;;;;;;;21.55;10.77;;;;;;;2.29;53.55;102673.28;4978382;28;124033;-72
2021/03/07 06:47:30;;;;;;;26.33;11.13;;;;;;;2.32;53.73;102670.75;4974509;28;119194;-72
2021/03/07 06:50:11;;;;;;;58.63;11.77;;;;;;;2.33;53.89;102668.13;4944282;28;118365;-73
2021/03/07 06:52:52;;;;;;;49.10;11.23;;;;;;;2.37;54.21;102669.09;4958344;28;122870;-73
2021/03/07 06:55:22;;;;;;;71.72;10.68;;;;;;;2.39;54.10;102672.59;4938365;28;124000;-73
2021/03/07 06:57:49;;;;;;;39.78;9.90;;;;;;;2.43;54.29;102668.31;4957447;28;118860;-72
2021/03/07 07:00:16;;;;;;;59.28;10.38;;;;;;;2.46;54.29;102669.25;4947670;28;119325;-72
2021/03/07 07:03:09;;;;;;;44.92;10.32;;;;;;;2.48;54.15;102667.53;4946652;28;123842;-71
2021/03/07 07:05:48;;;;;;;41.55;9.40;;;;;;;2.50;54.16;102671.06;4932826;28;123832;-72
2021/03/07 07:08:17;;;;;;;49.33;9.63;;;;;;;2.52;54.35;102664.16;4946634;28;119997;-72
2021/03/07 07:11:10;;;;;;;45.33;10.30;;;;;;;2.55;54.37;102671.16;4936802;28;119737;-72
2021/03/07 07:13:45;;;;;;;23.88;8.98;;;;;;;2.59;54.32;102669.47;4946820;28;123822;-74
2021/03/07 07:16:33;;;;;;;24.38;8.68;;;;;;;2.64;54.62;102673.06;4940036;28;123209;-73
2021/03/07 07:19:00;;;;;;;16.90;8.80;;;;;;;2.68;54.64;102664.41;4951110;28;119381;-73
2021/03/07 07:21:27;;;;;;;16.33;8.73;;;;;;;2.72;54.64;102668.84;4962148;28;119564;-73
2021/03/07 07:23:53;;;;;;;17.52;9.35;;;;;;;2.76;54.57;102662.81;4959919;28;124000;-73
2021/03/07 07:26:20;;;;;;;16.52;9.35;;;;;;;2.82;54.69;102668.13;4952266;28;124708;-74
2021/03/07 07:28:47;;;;;;;15.02;8.68;;;;;;;2.88;54.79;102664.72;4955579;28;118995;-73
2021/03/07 07:31:30;;;;;;;20.10;8.60;;;;;;;2.92;54.99;102659.59;4946920;28;118662;-73
2021/03/07 07:34:16;;;;;;;15.98;8.43;;;;;;;2.98;54.71;102663.16;4939285;28;124045;-73
2021/03/07 07:36:56;;;;;;;20.27;8.60;;;;;;;3.03;54.27;102661.47;4944605;28;124231;-73
2021/03/07 07:39:28;;;;;;;20.75;8.40;;;;;;;3.05;54.78;102659.75;4955740;28;119274;-73
2021/03/07 07:41:54;;;;;;;24.90;8.77;;;;;;;3.07;54.88;102663.28;4945069;28;118885;-74
2021/03/07 07:44:30;;;;;;;12.43;8.25;;;;;;;3.10;54.80;102663.34;4950143;28;123858;-73
2021/03/07 07:46:56;;;;;;;;;;;;;;;3.14;54.54;102657.28;4949840;28;123885;-74
2021/03/07 07:49:51;;;;;;;12.60;8.00;;;;;;;3.18;54.55;102653.84;4951509;28;119428;-73
2021/03/07 07:52:21;;;;;;;23.20;9.60;;;;;;;3.22;54.55;102657.41;4937279;28;118650;-73
2021/03/07 07:54:58;;;;;;;15.02;8.98;;;;;;;3.26;54.80;102652.25;4949832;28;123908;-74
2021/03/07 07:57:38;;;;;;;13.65;9.32;;;;;;;3.33;54.87;102649.72;4939542;28;123509;-73
2021/03/07 08:00:20;;;;;;;14.25;8.85;;;;;;;3.37;55.10;102657.66;4936218;28;119217;-73
2021/03/07 08:02:53;;;;;;;14.95;9.48;;;;;;;3.44;55.18;102654.22;4952665;28;119872;-74
2021/03/07 08:05:20;;;;;;;14.32;9.35;;;;;;;3.51;55.05;102660.44;4967798;28;125909;-74
2021/03/07 08:08:00;;;;;;;16.10;10.07;;;;;;;3.57;55.50;102660.53;4931633;28;125170;-73
2021/03/07 08:10:36;;;;;;;15.95;10.30;;;;;;;3.63;55.25;102660.59;4933692;28;119459;-73
2021/03/07 08:13:04;;;;;;;17.33;10.88;;;;;;;3.70;55.00;102662.44;4932415;28;119437;-73
2021/03/07 08:15:34;;;;;;;17.45;10.80;;;;;;;3.77;55.08;102659.88;4948809;28;123233;-73
2021/03/07 08:18:04;;;;;;;16.92;10.73;;;;;;;3.81;55.32;102661.72;4951242;28;125293;-73
2021/03/07 08:20:51;;;;;;;19.05;10.88;;;;;;;3.88;55.33;102666.13;4933805;28;119629;-73
2021/03/07 08:23:20;;;;;;;13.65;10.20;;;;;;;3.94;55.36;102661.00;4973043;28;118029;-74
2021/03/07 08:25:46;;;;;;;14.82;9.52;;;;;;;3.98;55.38;102657.53;4957605;28;124524;-73
2021/03/07 08:28:25;;;;;;;13.48;9.43;;;;;;;4.01;55.66;102656.69;4966654;28;122505;-73
2021/03/07 08:30:52;;;;;;;13.70;10.48;;;;;;;4.07;55.51;102662.91;4966469;28;119451;-73
2021/03/07 08:33:30;;;;;;;19.45;11.65;;;;;;;4.11;55.54;102658.56;4947968;28;120347;-74
2021/03/07 08:36:25;;;;;;;18.85;12.80;;;;;;;4.15;55.53;102664.72;4932610;28;123155;-73
2021/03/07 08:38:55;;;;;;;22.00;14.40;;;;;;;4.19;55.66;102661.28;4963728;28;124615;-73
2021/03/07 08:41:31;;;;;;;25.20;16.77;;;;;;;4.22;55.71;102653.41;4950463;28;119385;-74
2021/03/07 08:43:59;;;;;;;49.95;30.35;;;;;;;4.27;55.82;102649.09;4942119;28;118285;-73
2021/03/07 08:46:41;;;;;;;50.88;32.28;;;;;;;4.33;56.12;102658.78;4950023;28;122802;-73
2021/03/07 08:49:10;;;;;;;100.22;59.25;;;;;;;4.41;55.90;102655.38;4959367;28;123853;-73
2021/03/07 08:51:42;;;;;;;118.63;71.00;;;;;;;4.49;56.28;102656.31;4949752;28;120406;-74
2021/03/07 08:54:11;;;;;;;97.47;56.15;;;;;;;4.58;56.29;102654.66;4947962;28;119939;-73
2021/03/07 08:56:39;;;;;;;60.65;37.70;;;;;;;4.64;56.29;102654.72;4932755;28;123195;-74
2021/03/07 08:59:07;;;;;;;54.92;33.80;;;;;;;4.72;56.57;102653.03;4951259;28;124084;-74
2021/03/07 09:01:34;;;;;;;49.17;29.50;;;;;;;4.80;56.47;102651.38;4933798;28;119074;-74
2021/03/07 09:04:06;;;;;;;45.30;29.10;;;;;;;4.88;56.84;102644.41;4916899;28;118173;-74
2021/03/07 09:06:38;;;;;;;55.28;32.70;;;;;;;4.99;56.87;102646.22;4949869;28;123117;-74
2021/03/07 09:09:10;;;;;;;58.97;30.50;;;;;;;5.08;56.59;102643.66;4941912;28;124323;-75
2021/03/07 09:11:52;;;;;;;53.40;31.48;;;;;;;5.18;57.09;102647.22;4972248;28;118294;-74
2021/03/07 09:14:36;;;;;;;27.35;16.48;;;;;;;5.27;56.94;102652.53;4942291;28;118690;-74
2021/03/07 09:17:16;;;;;;;20.08;11.90;;;;;;;5.37;57.07;102648.22;4949441;28;124351;-75
2021/03/07 09:19:44;;;;;;;17.42;10.23;;;;;;;5.47;57.10;102644.78;4949404;28;124651;-74
2021/03/07 09:22:20;;;;;;;16.50;10.00;;;;;;;5.57;57.26;102625.56;4932979;28;119442;-75
2021/03/07 09:25:07;;;;;;;13.90;8.50;;;;;;;5.70;57.17;102637.00;4949297;28;118986;-75
2021/03/07 09:27:43;;;;;;;14.85;8.38;;;;;;;5.82;57.23;102636.16;4950149;28;123771;-75
2021/03/07 09:30:19;;;;;;;13.15;7.88;;;;;;;5.93;57.63;102629.19;4950353;28;123735;-75
2021/03/07 09:32:50;;;;;;;14.40;8.30;;;;;;;6.04;57.24;102627.50;4948959;28;119071;-75
2021/03/07 09:35:31;;;;;;;14.18;7.95;;;;;;;6.14;57.40;102630.16;4932009;28;119148;-75
2021/03/07 09:38:08;;;;;;;12.70;6.90;;;;;;;6.25;57.67;102628.44;4949003;28;124436;-75
2021/03/07 09:40:38;;;;;;;14.48;7.60;;;;;;;6.34;57.37;102628.44;4950389;28;124015;-75
2021/03/07 09:43:07;;;;;;;15.85;6.97;;;;;;;6.43;57.17;102623.19;4942137;28;118794;-76
2021/03/07 09:45:37;;;;;;;10.65;6.28;;;;;;;6.54;57.48;102623.22;4950303;28;119792;-75
2021/03/07 09:48:16;;;;;;;10.70;6.13;;;;;;;6.64;57.12;102626.72;4957772;28;123833;-75
2021/03/07 09:50:44;;;;;;;12.93;6.55;;;;;;;6.72;57.07;102622.31;4933550;28;124162;-75
2021/03/07 09:53:13;;;;;;;10.27;6.47;;;;;;;6.82;56.91;102623.22;4949280;28;119942;-75
2021/03/07 09:55:41;;;;;;;13.18;6.35;;;;;;;6.91;57.12;102617.94;4933398;28;119710;-75
2021/03/07 09:58:10;;;;;;;11.45;5.95;;;;;;;6.99;56.95;102621.44;4965365;28;123082;-75
2021/03/07 10:00:40;;;;;;;11.18;4.82;;;;;;;7.08;56.82;102614.38;4937844;28;123828;-75
2021/03/07 10:03:17;;;;;;;12.15;5.28;;;;;;;7.16;56.48;102613.50;4932716;28;119207;-75
2021/03/07 10:06:05;;;;;;;9.40;4.63;;;;;;;7.27;56.44;102623.13;4952707;28;118188;-75
2021/03/07 10:08:34;;;;;;;8.40;4.88;;;;;;;7.40;56.38;102619.56;4957823;28;123821;-75
2021/03/07 10:11:11;;;;;;;6.70;4.57;;;;;;;7.52;56.48;102616.91;4932676;28;122351;-75
2021/03/07 10:13:39;;;;;;;8.02;4.50;;;;;;;7.67;56.11;102615.09;4931499;28;118182;-75
2021/03/07 10:16:08;;;;;;;7.43;4.60;;;;;;;7.83;55.83;102614.13;4940278;28;119409;-75
2021/03/07 10:18:38;;;;;;;4.80;3.97;;;;;;;8.02;55.08;102616.66;4937320;28;122928;-75
2021/03/07 10:21:06;;;;;;;6.55;4.20;;;;;;;8.15;54.91;102607.78;4934705;28;123112;-75
2021/03/07 10:23:34;;;;;;;7.55;4.57;;;;;;;8.26;53.82;102611.22;4947257;28;118425;-75
2021/03/07 10:26:03;;;;;;;6.57;3.90;;;;;;;8.31;53.49;102612.09;4954208;28;119847;-75
2021/03/07 10:28:34;;;;;;;6.38;3.70;;;;;;;8.34;52.41;102612.06;4965536;28;124505;-75
2021/03/07 10:31:12;;;;;;;5.38;3.25;;;;;;;8.35;51.42;102616.44;4954221;28;124489;-75
2021/03/07 10:33:40;;;;;;;4.80;3.42;;;;;;;8.36;50.84;102610.31;4932664;28;119840;-75
2021/03/07 10:36:07;;;;;;;5.53;3.72;;;;;;;8.37;50.59;102609.41;4936410;28;120218;-75
2021/03/07 10:38:42;;;;;;;5.05;3.55;;;;;;;8.39;50.51;102602.34;4936060;28;123181;-75
2021/03/07 10:41:27;;;;;;;3.60;2.73;;;;;;;8.45;50.26;102605.84;4950556;28;124280;-75
2021/03/07 10:43:56;;;;;;;5.67;2.47;;;;;;;8.51;49.81;102605.81;4941525;28;118493;-75
2021/03/07 10:46:41;;;;;;;4.40;2.20;;;;;;;8.55;49.07;102591.69;4949994;28;119327;-75
2021/03/07 10:49:24;;;;;;;4.43;2.22;;;;;;;8.55;48.91;102591.69;4946278;28;123836;-75
2021/03/07 10:51:51;;;;;;;3.22;2.30;;;;;;;8.56;48.31;102581.09;4949510;28;124619;-75
2021/03/07 10:54:18;;;;;;;4.00;2.08;;;;;;;8.60;48.21;102595.16;4932447;28;119230;-75
2021/03/07 10:56:45;;;;;;;4.47;2.50;;;;;;;8.65;47.76;102582.81;4961536;28;117574;-75
2021/03/07 10:59:12;;;;;;;4.57;2.30;;;;;;;8.69;47.37;102583.66;4948861;28;124290;-75
2021/03/07 11:01:39;;;;;;;3.45;2.63;;;;;;;8.73;46.71;102585.38;4947212;28;122914;-75
2021/03/07 11:04:07;;;;;;;6.57;2.60;;;;;;;8.81;46.66;102582.66;4948639;28;120001;-75
2021/03/07 11:06:33;;;;;;;5.75;2.63;;;;;;;8.88;46.42;102579.06;4932539;28;118396;-75
2021/03/07 11:09:00;;;;;;;4.55;2.67;;;;;;;8.93;45.94;102571.97;4936802;28;123496;-75
2021/03/07 11:11:26;;;;;;;4.82;2.75;;;;;;;8.99;46.05;102571.91;4947624;28;123510;-75
2021/03/07 11:13:53;;;;;;;3.80;2.20;;;;;;;9.05;46.06;102571.84;4941321;28;119685;-75
2021/03/07 11:16:20;;;;;;;4.43;2.47;;;;;;;9.13;45.42;102567.31;4932488;28;118127;-74
2021/03/07 11:18:46;;;;;;;4.97;2.75;;;;;;;9.21;45.26;102561.09;4913475;28;123224;-75
2021/03/07 11:21:13;;;;;;;7.07;2.90;;;;;;;9.30;45.30;102563.63;4949084;28;122735;-74
2021/03/07 11:23:40;;;;;;;3.50;2.63;;;;;;;9.37;44.95;102552.06;4950265;28;120223;-75
2021/03/07 11:26:06;;;;;;;4.80;2.40;;;;;;;9.45;44.74;102560.78;4942083;28;119690;-74
2021/03/07 11:28:33;;;;;;;3.25;2.40;;;;;;;9.51;44.54;102566.00;4930161;28;123203;-72
2021/03/07 11:31:00;;;;;;;3.20;2.20;;;;;;;9.53;44.67;102564.22;4945088;28;124672;-74
2021/03/07 11:33:26;;;;;;;5.22;2.92;;;;;;;9.55;43.83;102567.72;4936068;28;118690;-74
2021/03/07 11:35:53;;;;;;;4.03;2.65;;;;;;;9.55;43.86;102567.72;4953381;28;118751;-75